createdAt,value
2019-04-06T00:00:22.729Z,99.99
2019-04-06T00:01:22.653Z,99.99
2019-04-06T00:02:22.567Z,99.99
2019-04-06T00:03:22.492Z,99.99
2019-04-06T00:04:22.408Z,99.99
2019-04-06T00:05:22.318Z,99.99
2019-04-06T00:06:22.284Z,99.99
2019-04-06T00:07:22.157Z,99.99
2019-04-06T00:08:22.068Z,99.99
2019-04-06T00:09:21.992Z,99.99
2019-04-06T00:10:21.905Z,99.99
2019-04-06T00:11:21.829Z,99.99
2019-04-06T00:12:21.792Z,99.99
2019-04-06T00:13:21.662Z,99.99
2019-04-06T00:14:21.580Z,99.99
2019-04-06T00:15:21.525Z,99.99
2019-04-06T00:16:21.418Z,99.99
2019-04-06T00:17:21.344Z,99.99
2019-04-06T00:18:21.255Z,99.99
2019-04-06T00:19:21.170Z,99.99
2019-04-06T00:20:21.080Z,99.99
2019-04-06T00:21:21.006Z,99.99
2019-04-06T00:22:20.921Z,99.99
2019-04-06T00:23:20.869Z,99.99
2019-04-06T00:24:20.756Z,99.99
2019-04-06T00:25:20.671Z,99.99
2019-04-06T00:26:20.605Z,99.99
2019-04-06T00:27:20.513Z,99.99
2019-04-06T00:28:20.430Z,99.99
2019-04-06T00:29:20.344Z,99.99
2019-04-06T00:30:20.257Z,99.99
2019-04-06T00:31:20.195Z,99.99
2019-04-06T00:32:20.098Z,99.99
2019-04-06T00:33:20.010Z,99.99
2019-04-06T00:34:19.933Z,99.99
2019-04-06T00:35:19.846Z,99.99
2019-04-06T00:36:19.771Z,99.99
2019-04-06T00:37:19.698Z,99.99
2019-04-06T00:38:19.607Z,99.99
2019-04-06T00:39:19.528Z,99.99
2019-04-06T00:40:19.432Z,99.99
2019-04-06T00:41:19.362Z,99.99
2019-04-06T00:42:19.281Z,99.99
2019-04-06T00:43:19.200Z,99.99
2019-04-06T00:44:19.108Z,99.99
2019-04-06T00:45:19.045Z,99.99
2019-04-06T00:46:18.947Z,99.99
2019-04-06T00:47:18.927Z,99.99
2019-04-06T00:48:18.785Z,99.99
2019-04-06T00:49:18.697Z,99.99
2019-04-06T00:50:18.609Z,99.99
2019-04-06T00:51:18.536Z,99.99
2019-04-06T00:52:18.447Z,99.99
2019-04-06T00:53:18.372Z,99.99
2019-04-06T00:54:18.285Z,99.99
2019-04-06T00:55:18.209Z,99.99
2019-04-06T00:56:18.122Z,99.99
2019-04-06T00:57:18.037Z,99.99
2019-04-06T00:58:18.004Z,99.99
2019-04-06T00:59:17.884Z,99.99
2019-04-06T01:00:17.798Z,99.99
2019-04-06T01:01:17.722Z,99.99
2019-04-06T01:02:17.622Z,99.99
2019-04-06T01:03:17.548Z,99.99
2019-04-06T01:04:17.461Z,99.99
2019-04-06T01:05:17.385Z,99.75
2019-04-06T01:06:17.303Z,99.66
2019-04-06T01:07:17.216Z,99.66
2019-04-06T01:08:17.135Z,99.99
2019-04-06T01:09:17.049Z,99.99
2019-04-06T01:10:16.974Z,99.99
2019-04-06T01:11:16.886Z,99.66
2019-04-06T01:12:16.811Z,99.56
2019-04-06T01:13:16.728Z,99.27
2019-04-06T01:14:16.639Z,99.46
2019-04-06T01:15:16.626Z,98.90
2019-04-06T01:16:16.474Z,99.27
2019-04-06T01:17:16.403Z,97.85
2019-04-06T01:18:16.313Z,98.13
2019-04-06T01:19:16.237Z,98.42
2019-04-06T01:20:16.150Z,98.51
2019-04-06T01:21:16.075Z,98.32
2019-04-06T01:22:15.987Z,97.85
2019-04-06T01:23:15.902Z,96.98
2019-04-06T01:24:15.825Z,97.22
2019-04-06T01:25:15.738Z,97.22
2019-04-06T01:26:15.664Z,97.03
2019-04-06T01:27:15.575Z,98.08
2019-04-06T01:28:15.488Z,97.99
2019-04-06T01:29:15.413Z,97.89
2019-04-06T01:30:15.327Z,98.37
2019-04-06T01:31:15.252Z,98.37
2019-04-06T01:32:15.163Z,97.37
2019-04-06T01:33:15.101Z,97.46
2019-04-06T01:34:15.001Z,98.42
2019-04-06T01:35:14.915Z,97.94
2019-04-06T01:36:14.839Z,97.89
2019-04-06T01:37:14.752Z,97.85
2019-04-06T01:38:14.677Z,98.22
2019-04-06T01:39:14.589Z,98.61
2019-04-06T01:40:14.584Z,98.90
2019-04-06T01:41:14.427Z,98.32
2019-04-06T01:42:14.373Z,98.80
2019-04-06T01:43:14.264Z,98.51
2019-04-06T01:44:14.182Z,99.37
2019-04-06T01:45:14.103Z,99.56
2019-04-06T01:46:14.015Z,99.46
2019-04-06T01:47:13.953Z,99.66
2019-04-06T01:48:13.855Z,99.60
2019-04-06T01:49:13.766Z,99.89
2019-04-06T01:50:13.705Z,99.99
2019-04-06T01:51:13.603Z,99.99
2019-04-06T01:52:13.528Z,99.99
2019-04-06T01:53:13.441Z,99.99
2019-04-06T01:54:13.365Z,99.99
2019-04-06T01:55:13.279Z,99.99
2019-04-06T01:56:18.393Z,99.99
2019-04-06T01:57:13.117Z,99.99
2019-04-06T01:58:13.029Z,99.99
2019-04-06T01:59:12.985Z,99.99
2019-04-06T02:00:12.880Z,99.99
2019-04-06T02:01:12.781Z,99.99
2019-04-06T02:02:12.704Z,99.99
2019-04-06T02:03:12.646Z,99.99
2019-04-06T02:04:12.542Z,99.99
2019-04-06T02:05:12.457Z,99.99
2019-04-06T02:06:12.380Z,99.99
2019-04-06T02:07:12.292Z,99.99
2019-04-06T02:08:12.206Z,99.99
2019-04-06T02:09:12.180Z,99.99
2019-04-06T02:10:12.110Z,99.99
2019-04-06T02:11:11.972Z,99.99
2019-04-06T02:12:11.880Z,99.99
2019-04-06T02:13:11.793Z,99.99
2019-04-06T02:14:11.796Z,99.99
2019-04-06T02:15:11.631Z,99.99
2019-04-06T02:16:11.559Z,99.99
2019-04-06T02:17:11.471Z,99.99
2019-04-06T02:18:11.385Z,99.99
2019-04-06T02:19:11.306Z,99.99
2019-04-06T02:20:11.220Z,99.99
2019-04-06T02:21:11.143Z,99.99
2019-04-06T02:22:11.058Z,99.99
2019-04-06T02:23:10.970Z,99.99
2019-04-06T02:24:10.894Z,99.99
2019-04-06T02:25:10.809Z,99.99
2019-04-06T02:26:10.732Z,99.99
2019-04-06T02:27:10.645Z,99.99
2019-04-06T02:28:10.559Z,99.99
2019-04-06T02:29:10.483Z,99.99
2019-04-06T02:30:10.396Z,99.99
2019-04-06T02:31:10.322Z,99.99
2019-04-06T02:32:10.233Z,99.99
2019-04-06T02:33:10.150Z,99.99
2019-04-06T02:34:10.071Z,99.99
2019-04-06T02:35:09.983Z,99.99
2019-04-06T02:36:09.908Z,99.99
2019-04-06T02:37:09.822Z,99.99
2019-04-06T02:38:09.743Z,99.99
2019-04-06T02:39:09.660Z,99.99
2019-04-06T02:40:09.573Z,99.99
2019-04-06T02:41:09.497Z,99.99
2019-04-06T02:42:09.413Z,99.99
2019-04-06T02:43:09.582Z,99.99
2019-04-06T02:44:09.247Z,99.99
2019-04-06T02:45:09.162Z,99.99
2019-04-06T02:46:09.073Z,99.99
2019-04-06T02:47:08.999Z,99.99
2019-04-06T02:48:08.911Z,99.99
2019-04-06T02:49:08.918Z,99.99
2019-04-06T02:50:08.757Z,99.99
2019-04-06T02:51:08.660Z,99.99
2019-04-06T02:52:08.589Z,99.99
2019-04-06T02:53:08.498Z,99.99
2019-04-06T02:54:08.424Z,99.99
2019-04-06T02:55:08.339Z,99.99
2019-04-06T02:56:08.248Z,99.99
2019-04-06T02:57:08.173Z,99.99
2019-04-06T02:58:08.089Z,99.99
2019-04-06T02:59:08.002Z,99.99
2019-04-06T03:00:07.923Z,99.99
2019-04-06T03:01:07.841Z,99.99
2019-04-06T03:02:07.760Z,99.99
2019-04-06T03:03:07.674Z,99.99
2019-04-06T03:04:07.591Z,99.99
2019-04-06T03:05:07.514Z,99.99
2019-04-06T03:06:07.424Z,99.99
2019-04-06T03:07:07.336Z,99.99
2019-04-06T03:08:07.263Z,99.99
2019-04-06T03:09:07.176Z,99.99
2019-04-06T03:10:07.100Z,99.99
2019-04-06T03:11:07.012Z,99.99
2019-04-06T03:12:06.925Z,99.99
2019-04-06T03:13:06.898Z,99.99
2019-04-06T03:14:06.763Z,99.99
2019-04-06T03:15:06.736Z,99.99
2019-04-06T03:16:06.600Z,99.99
2019-04-06T03:17:06.514Z,99.99
2019-04-06T03:18:06.427Z,99.99
2019-04-06T03:19:06.383Z,99.99
2019-04-06T03:20:06.277Z,99.99
2019-04-06T03:21:06.187Z,99.99
2019-04-06T03:22:06.121Z,99.99
2019-04-06T03:23:06.014Z,99.99
2019-04-06T03:24:05.989Z,99.99
2019-04-06T03:25:05.929Z,99.99
2019-04-06T03:26:05.775Z,99.99
2019-04-06T03:27:05.692Z,99.99
2019-04-06T03:28:05.605Z,99.99
2019-04-06T03:29:05.657Z,99.99
2019-04-06T03:30:05.454Z,99.99
2019-04-06T03:31:05.594Z,99.99
2019-04-06T03:32:05.307Z,99.99
2019-04-06T03:33:05.196Z,99.99
2019-04-06T03:34:05.125Z,99.99
2019-04-06T03:35:05.067Z,99.99
2019-04-06T03:36:04.947Z,99.99
2019-04-06T03:37:05.051Z,99.99
2019-04-06T03:38:04.778Z,99.99
2019-04-06T03:39:04.844Z,99.99
2019-04-06T03:40:04.603Z,99.99
2019-04-06T03:41:04.540Z,99.99
2019-04-06T03:42:04.441Z,99.99
2019-04-06T03:43:04.483Z,99.99
2019-04-06T03:44:04.281Z,99.99
2019-04-06T03:45:04.205Z,99.99
2019-04-06T03:46:04.170Z,99.99
2019-04-06T03:47:04.042Z,99.99
2019-04-06T03:48:03.942Z,99.99
2019-04-06T03:49:03.868Z,99.99
2019-04-06T03:50:03.806Z,99.99
2019-04-06T03:51:03.706Z,99.99
2019-04-06T03:52:03.625Z,99.99
2019-04-06T03:53:03.716Z,99.99
2019-04-06T03:54:03.458Z,99.99
2019-04-06T03:55:03.372Z,99.99
2019-04-06T03:56:03.427Z,99.99
2019-04-06T03:57:13.638Z,99.99
2019-04-06T03:58:03.122Z,99.99
2019-04-06T03:59:03.037Z,99.99
2019-04-06T04:00:03.005Z,99.99
2019-04-06T04:01:02.873Z,99.99
2019-04-06T04:02:02.797Z,99.99
2019-04-06T04:03:02.728Z,99.99
2019-04-06T04:04:02.619Z,99.99
2019-04-06T04:05:02.549Z,99.99
2019-04-06T04:06:02.672Z,99.99
2019-04-06T04:07:02.426Z,99.99
2019-04-06T04:08:02.329Z,99.99
2019-04-06T04:09:02.206Z,99.99
2019-04-06T04:10:02.121Z,99.99
2019-04-06T04:11:02.045Z,99.99
2019-04-06T04:12:01.956Z,99.84
2019-04-06T04:13:01.874Z,99.84
2019-04-06T04:14:01.844Z,99.94
2019-04-06T04:15:01.887Z,99.46
2019-04-06T04:16:01.632Z,99.65
2019-04-06T04:17:01.608Z,98.99
2019-04-06T04:18:01.456Z,98.99
2019-04-06T04:19:01.386Z,98.99
2019-04-06T04:20:01.295Z,98.99
2019-04-06T04:21:01.220Z,99.27
2019-04-06T04:22:01.139Z,99.37
2019-04-06T04:23:01.046Z,99.18
2019-04-06T04:24:00.958Z,99.18
2019-04-06T04:25:00.883Z,99.55
2019-04-06T04:26:00.797Z,99.18
2019-04-06T04:27:00.726Z,99.08
2019-04-06T04:28:00.633Z,98.41
2019-04-06T04:29:00.550Z,98.03
2019-04-06T04:30:00.472Z,97.75
2019-04-06T04:31:00.384Z,97.94
2019-04-06T04:32:00.304Z,97.46
2019-04-06T04:33:00.226Z,96.60
2019-04-06T04:34:00.216Z,96.27
2019-04-06T04:35:00.079Z,96.08
2019-04-06T04:36:00.040Z,96.75
2019-04-06T04:36:59.883Z,96.75
2019-04-06T04:37:59.809Z,96.17
2019-04-06T04:38:59.728Z,96.36
2019-04-06T04:39:59.635Z,95.89
2019-04-06T04:40:59.839Z,96.75
2019-04-06T04:41:59.474Z,96.46
2019-04-06T04:42:59.386Z,96.94
2019-04-06T04:43:59.309Z,96.56
2019-04-06T04:44:59.269Z,96.51
2019-04-06T04:45:59.151Z,97.17
2019-04-06T04:46:59.074Z,96.98
2019-04-06T04:47:58.973Z,96.65
2019-04-06T04:48:58.898Z,96.36
2019-04-06T04:49:58.812Z,96.56
2019-04-06T04:50:58.754Z,96.08
2019-04-06T04:51:58.655Z,96.08
2019-04-06T04:52:58.572Z,96.41
2019-04-06T04:53:58.485Z,96.46
2019-04-06T04:54:58.402Z,95.61
2019-04-06T04:55:58.311Z,95.70
2019-04-06T04:56:58.235Z,95.41
2019-04-06T04:57:58.151Z,94.84
2019-04-06T04:58:58.074Z,95.12
2019-04-06T04:59:57.986Z,94.74
2019-04-06T05:00:57.899Z,95.03
2019-04-06T05:01:57.823Z,95.03
2019-04-06T05:02:57.809Z,95.03
2019-04-06T05:03:57.649Z,95.32
2019-04-06T05:04:57.574Z,95.03
2019-04-06T05:05:57.486Z,95.12
2019-04-06T05:06:57.545Z,94.74
2019-04-06T05:07:57.327Z,94.84
2019-04-06T05:08:57.237Z,95.03
2019-04-06T05:09:57.161Z,95.51
2019-04-06T05:10:57.075Z,95.79
2019-04-06T05:11:57.000Z,95.51
2019-04-06T05:12:56.911Z,95.98
2019-04-06T05:13:56.923Z,95.12
2019-04-06T05:14:56.824Z,95.03
2019-04-06T05:15:56.681Z,95.41
2019-04-06T05:16:56.589Z,95.41
2019-04-06T05:17:56.501Z,95.22
2019-04-06T05:18:56.413Z,94.65
2019-04-06T05:19:56.338Z,94.08
2019-04-06T05:20:56.262Z,94.84
2019-04-06T05:21:56.175Z,95.03
2019-04-06T05:22:56.101Z,94.65
2019-04-06T05:23:56.174Z,94.56
2019-04-06T05:24:55.927Z,95.03
2019-04-06T05:25:55.839Z,94.84
2019-04-06T05:26:55.869Z,94.84
2019-04-06T05:27:55.679Z,94.17
2019-04-06T05:28:55.605Z,93.36
2019-04-06T05:29:55.526Z,92.88
2019-04-06T05:30:55.536Z,93.36
2019-04-06T05:31:55.351Z,92.50
2019-04-06T05:32:55.265Z,92.60
2019-04-06T05:33:55.182Z,91.93
2019-04-06T05:34:55.560Z,92.41
2019-04-06T05:35:55.024Z,91.64
2019-04-06T05:36:54.953Z,91.83
2019-04-06T05:37:54.854Z,92.22
2019-04-06T05:38:54.779Z,92.03
2019-04-06T05:39:54.693Z,91.93
2019-04-06T05:40:54.603Z,91.36
2019-04-06T05:41:54.529Z,91.60
2019-04-06T05:42:54.440Z,91.64
2019-04-06T05:43:54.369Z,91.41
2019-04-06T05:44:54.279Z,91.93
2019-04-06T05:45:54.191Z,91.93
2019-04-06T05:46:54.290Z,91.50
2019-04-06T05:47:54.028Z,91.50
2019-04-06T05:48:53.955Z,91.98
2019-04-06T05:49:53.883Z,91.31
2019-04-06T05:50:53.791Z,91.98
2019-04-06T05:51:53.835Z,91.21
2019-04-06T05:52:53.630Z,91.60
2019-04-06T05:53:53.542Z,91.31
2019-04-06T05:54:53.454Z,90.93
2019-04-06T05:55:53.498Z,91.02
2019-04-06T05:56:53.291Z,90.93
2019-04-06T05:58:02.935Z,90.36
2019-04-06T05:58:53.137Z,90.36
2019-04-06T05:59:53.055Z,89.45
2019-04-06T06:00:52.968Z,89.73
2019-04-06T06:01:52.882Z,89.54
2019-04-06T06:02:52.887Z,89.16
2019-04-06T06:03:52.717Z,89.06
2019-04-06T06:04:52.867Z,88.49
2019-04-06T06:05:52.864Z,88.68
2019-04-06T06:06:52.634Z,88.68
2019-04-06T06:07:52.407Z,88.78
2019-04-06T06:08:52.332Z,88.59
2019-04-06T06:09:52.232Z,88.11
2019-04-06T06:10:52.145Z,88.11
2019-04-06T06:11:52.067Z,87.77
2019-04-06T06:12:51.982Z,88.06
2019-04-06T06:13:51.907Z,88.25
2019-04-06T06:14:51.825Z,88.73
2019-04-06T06:15:51.744Z,87.96
2019-04-06T06:16:51.660Z,86.72
2019-04-06T06:17:51.589Z,86.47
2019-04-06T06:18:51.501Z,86.86
2019-04-06T06:19:51.788Z,86.47
2019-04-06T06:20:51.332Z,85.90
2019-04-06T06:21:51.259Z,86.76
2019-04-06T06:22:51.182Z,85.90
2019-04-06T06:23:51.095Z,84.89
2019-04-06T06:24:51.008Z,84.47
2019-04-06T06:25:50.933Z,84.76
2019-04-06T06:26:50.845Z,84.38
2019-04-06T06:27:50.762Z,84.47
2019-04-06T06:28:50.685Z,85.05
2019-04-06T06:29:50.596Z,84.85
2019-04-06T06:30:50.534Z,85.33
2019-04-06T06:31:50.521Z,85.05
2019-04-06T06:32:50.363Z,84.85
2019-04-06T06:33:50.271Z,84.28
2019-04-06T06:34:50.200Z,85.24
2019-04-06T06:35:50.109Z,84.95
2019-04-06T06:36:50.035Z,84.47
2019-04-06T06:37:49.949Z,84.47
2019-04-06T06:38:49.878Z,84.56
2019-04-06T06:39:49.785Z,84.19
2019-04-06T06:40:49.711Z,84.19
2019-04-06T06:41:49.771Z,84.42
2019-04-06T06:42:49.560Z,83.80
2019-04-06T06:43:49.458Z,83.80
2019-04-06T06:44:49.385Z,84.28
2019-04-06T06:45:49.297Z,84.38
2019-04-06T06:46:49.221Z,84.38
2019-04-06T06:47:49.136Z,84.19
2019-04-06T06:48:49.060Z,84.09
2019-04-06T06:49:48.972Z,85.24
2019-04-06T06:50:48.897Z,84.38
2019-04-06T06:51:48.811Z,84.42
2019-04-06T06:52:48.735Z,84.52
2019-04-06T06:53:48.693Z,84.03
2019-04-06T06:54:48.594Z,83.46
2019-04-06T06:55:48.485Z,82.60
2019-04-06T06:56:48.411Z,82.46
2019-04-06T06:57:48.324Z,83.13
2019-04-06T06:58:48.250Z,83.17
2019-04-06T06:59:48.165Z,83.46
2019-04-06T07:00:48.087Z,83.56
2019-04-06T07:01:48.004Z,83.56
2019-04-06T07:02:47.924Z,83.17
2019-04-06T07:03:47.837Z,82.70
2019-04-06T07:04:47.762Z,82.70
2019-04-06T07:05:47.682Z,82.22
2019-04-06T07:06:47.599Z,82.31
2019-04-06T07:07:47.544Z,82.12
2019-04-06T07:08:47.437Z,81.68
2019-04-06T07:09:47.356Z,81.49
2019-04-06T07:10:47.274Z,81.49
2019-04-06T07:11:47.188Z,81.30
2019-04-06T07:12:47.112Z,80.96
2019-04-06T07:13:47.027Z,80.96
2019-04-06T07:14:46.953Z,80.24
2019-04-06T07:15:46.875Z,78.86
2019-04-06T07:16:46.788Z,78.99
2019-04-06T07:17:46.713Z,79.18
2019-04-06T07:18:46.625Z,77.50
2019-04-06T07:19:46.552Z,76.73
2019-04-06T07:20:46.465Z,76.02
2019-04-06T07:21:46.388Z,76.92
2019-04-06T07:22:46.590Z,75.58
2019-04-06T07:23:46.258Z,75.04
2019-04-06T07:24:46.163Z,74.47
2019-04-06T07:25:56.644Z,74.12
2019-04-06T07:26:45.990Z,73.65
2019-04-06T07:27:45.962Z,72.88
2019-04-06T07:28:45.851Z,72.97
2019-04-06T07:29:45.769Z,72.72
2019-04-06T07:30:45.664Z,71.47
2019-04-06T07:31:45.590Z,71.76
2019-04-06T07:32:45.502Z,71.19
2019-04-06T07:33:45.452Z,70.26
2019-04-06T07:34:45.354Z,69.78
2019-04-06T07:35:45.265Z,69.30
2019-04-06T07:36:45.195Z,68.57
2019-04-06T07:37:45.115Z,68.15
2019-04-06T07:38:45.030Z,68.63
2019-04-06T07:39:45.253Z,68.59
2019-04-06T07:40:44.878Z,69.78
2019-04-06T07:41:44.810Z,70.55
2019-04-06T07:42:44.715Z,69.17
2019-04-06T07:43:44.913Z,68.73
2019-04-06T07:44:44.594Z,68.73
2019-04-06T07:45:44.491Z,67.86
2019-04-06T07:46:44.417Z,67.22
2019-04-06T07:47:44.328Z,68.05
2019-04-06T07:48:44.321Z,67.67
2019-04-06T07:49:46.231Z,67.03
2019-04-06T07:50:44.092Z,67.13
2019-04-06T07:51:44.017Z,67.16
2019-04-06T07:52:43.942Z,66.77
2019-04-06T07:53:43.918Z,66.26
2019-04-06T07:54:43.784Z,67.25
2019-04-06T07:55:43.851Z,67.22
2019-04-06T07:56:43.630Z,67.45
2019-04-06T07:57:43.556Z,66.91
2019-04-06T07:58:49.537Z,66.14
2019-04-06T07:59:43.405Z,65.62
2019-04-06T08:00:43.318Z,65.53
2019-04-06T08:01:43.247Z,66.33
2019-04-06T08:02:43.168Z,65.17
2019-04-06T08:03:43.094Z,65.72
2019-04-06T08:04:43.018Z,65.94
2019-04-06T08:05:43.187Z,67.38
2019-04-06T08:06:42.868Z,67.25
2019-04-06T08:07:42.785Z,67.90
2019-04-06T08:08:42.706Z,67.32
2019-04-06T08:09:42.630Z,65.72
2019-04-06T08:10:42.661Z,66.07
2019-04-06T08:11:42.480Z,65.33
2019-04-06T08:12:42.406Z,65.72
2019-04-06T08:13:42.333Z,65.56
2019-04-06T08:14:42.332Z,65.30
2019-04-06T08:15:42.172Z,63.31
2019-04-06T08:16:42.094Z,62.48
2019-04-06T08:17:42.025Z,60.91
2019-04-06T08:18:41.946Z,60.87
2019-04-06T08:19:42.121Z,60.72
2019-04-06T08:20:41.795Z,61.58
2019-04-06T08:21:41.722Z,60.75
2019-04-06T08:22:41.645Z,61.00
2019-04-06T08:23:41.559Z,61.29
2019-04-06T08:24:41.485Z,61.49
2019-04-06T08:25:41.437Z,62.54
2019-04-06T08:26:41.332Z,61.71
2019-04-06T08:27:41.259Z,60.00
2019-04-06T08:28:41.186Z,60.49
2019-04-06T08:29:41.222Z,60.00
2019-04-06T08:30:46.026Z,60.90
2019-04-06T08:31:40.959Z,60.03
2019-04-06T08:32:40.895Z,59.55
2019-04-06T08:33:40.886Z,59.33
2019-04-06T08:34:40.733Z,60.10
2019-04-06T08:35:40.658Z,59.97
2019-04-06T08:36:40.592Z,60.39
2019-04-06T08:37:40.509Z,60.42
2019-04-06T08:38:40.479Z,60.13
2019-04-06T08:39:40.411Z,59.65
2019-04-06T08:40:40.284Z,60.32
2019-04-06T08:41:40.209Z,60.23
2019-04-06T08:42:40.135Z,58.81
2019-04-06T08:43:40.061Z,58.07
2019-04-06T08:44:40.218Z,57.59
2019-04-06T08:45:39.910Z,57.24
2019-04-06T08:46:39.835Z,57.85
2019-04-06T08:47:39.759Z,58.11
2019-04-06T08:48:39.689Z,58.59
2019-04-06T08:49:39.610Z,59.27
2019-04-06T08:50:39.549Z,59.07
2019-04-06T08:51:39.473Z,58.85
2019-04-06T08:52:39.400Z,59.49
2019-04-06T08:53:39.324Z,60.42
2019-04-06T08:54:39.401Z,61.16
2019-04-06T08:55:39.174Z,60.66
2019-04-06T08:56:39.099Z,61.84
2019-04-06T08:57:39.121Z,61.07
2019-04-06T08:58:38.949Z,61.91
2019-04-06T08:59:39.070Z,61.55
2019-04-06T09:00:38.923Z,62.38
2019-04-06T09:01:38.724Z,60.27
2019-04-06T09:02:38.710Z,60.20
2019-04-06T09:03:38.575Z,59.52
2019-04-06T09:04:38.687Z,58.01
2019-04-06T09:05:38.438Z,57.24
2019-04-06T09:06:38.374Z,57.75
2019-04-06T09:07:40.587Z,57.27
2019-04-06T09:08:38.212Z,56.30
2019-04-06T09:09:38.137Z,55.89
2019-04-06T09:10:38.064Z,56.40
2019-04-06T09:11:37.987Z,55.94
2019-04-06T09:12:38.160Z,55.15
2019-04-06T09:13:40.003Z,55.70
2019-04-06T09:14:37.763Z,56.59
2019-04-06T09:15:37.687Z,56.57
2019-04-06T09:16:37.614Z,56.21
2019-04-06T09:17:37.538Z,55.73
2019-04-06T09:18:37.463Z,55.70
2019-04-06T09:19:37.431Z,55.70
2019-04-06T09:20:37.314Z,55.99
2019-04-06T09:21:37.240Z,56.37
2019-04-06T09:22:37.177Z,56.15
2019-04-06T09:23:37.102Z,57.92
2019-04-06T09:24:37.057Z,57.40
2019-04-06T09:25:37.021Z,57.73
2019-04-06T09:26:36.877Z,58.89
2019-04-06T09:27:36.802Z,59.37
2019-04-06T09:28:36.728Z,60.24
2019-04-06T09:29:36.654Z,59.15
2019-04-06T09:30:36.577Z,59.63
2019-04-06T09:31:36.502Z,59.63
2019-04-06T09:32:36.672Z,60.39
2019-04-06T09:33:36.464Z,60.52
2019-04-06T09:34:36.319Z,61.10
2019-04-06T09:35:36.203Z,59.92
2019-04-06T09:36:36.337Z,59.63
2019-04-06T09:37:36.046Z,59.92
2019-04-06T09:38:35.967Z,60.01
2019-04-06T09:39:36.222Z,60.39
2019-04-06T09:40:35.830Z,60.59
2019-04-06T09:41:36.034Z,60.52
2019-04-06T09:42:35.666Z,59.47
2019-04-06T09:43:35.591Z,58.98
2019-04-06T09:44:35.518Z,58.44
2019-04-06T09:45:35.673Z,58.15
2019-04-06T09:46:35.463Z,58.98
2019-04-06T09:47:35.454Z,59.94
2019-04-06T09:48:35.204Z,59.37
2019-04-06T09:49:35.180Z,59.56
2019-04-06T09:50:35.055Z,59.56
2019-04-06T09:51:34.980Z,59.66
2019-04-06T09:52:34.905Z,59.75
2019-04-06T09:53:34.818Z,59.85
2019-04-06T09:54:34.745Z,60.04
2019-04-06T09:55:34.674Z,59.27
2019-04-06T09:56:34.725Z,59.01
2019-04-06T09:57:34.540Z,59.23
2019-04-06T09:58:34.443Z,57.98
2019-04-06T09:59:36.970Z,57.40
2019-04-06T10:00:34.283Z,58.08
2019-04-06T10:01:38.972Z,58.95
2019-04-06T10:02:34.130Z,59.27
2019-04-06T10:03:34.363Z,58.49
2019-04-06T10:04:34.032Z,57.60
2019-04-06T10:05:34.024Z,57.37
2019-04-06T10:06:33.832Z,58.72
2019-04-06T10:07:33.746Z,58.72
2019-04-06T10:08:33.669Z,59.43
2019-04-06T10:09:33.754Z,57.98
2019-04-06T10:10:33.773Z,58.08
2019-04-06T10:11:33.456Z,58.17
2019-04-06T10:12:33.369Z,56.25
2019-04-06T10:13:33.294Z,56.63
2019-04-06T10:14:33.218Z,57.21
2019-04-06T10:15:33.132Z,56.80
2019-04-06T10:16:33.058Z,56.41
2019-04-06T10:17:32.986Z,56.12
2019-04-06T10:18:32.914Z,55.83
2019-04-06T10:19:32.835Z,56.32
2019-04-06T10:20:32.951Z,56.60
2019-04-06T10:21:33.013Z,56.51
2019-04-06T10:22:33.056Z,56.63
2019-04-06T10:23:32.520Z,55.79
2019-04-06T10:24:32.460Z,55.19
2019-04-06T10:25:32.371Z,55.96
2019-04-06T10:26:32.296Z,55.77
2019-04-06T10:27:32.212Z,56.25
2019-04-06T10:28:32.133Z,55.60
2019-04-06T10:29:32.059Z,55.41
2019-04-06T10:30:31.984Z,54.93
2019-04-06T10:31:31.909Z,54.64
2019-04-06T10:32:31.822Z,54.35
2019-04-06T10:33:31.747Z,55.60
2019-04-06T10:34:31.684Z,56.57
2019-04-06T10:35:31.597Z,55.31
2019-04-06T10:36:32.093Z,54.16
2019-04-06T10:37:31.630Z,53.77
2019-04-06T10:38:31.451Z,53.87
2019-04-06T10:39:31.285Z,54.06
2019-04-06T10:40:31.209Z,54.52
2019-04-06T10:41:31.143Z,54.90
2019-04-06T10:42:31.064Z,55.60
2019-04-06T10:43:30.986Z,55.31
2019-04-06T10:44:30.911Z,53.77
2019-04-06T10:45:30.837Z,53.96
2019-04-06T10:46:30.761Z,54.96
2019-04-06T10:47:30.686Z,53.67
2019-04-06T10:48:30.610Z,53.96
2019-04-06T10:49:30.536Z,53.05
2019-04-06T10:50:30.464Z,52.67
2019-04-06T10:51:30.375Z,52.59
2019-04-06T10:52:30.311Z,52.01
2019-04-06T10:53:30.492Z,51.78
2019-04-06T10:54:30.162Z,51.20
2019-04-06T10:55:30.087Z,51.64
2019-04-06T10:56:30.013Z,49.82
2019-04-06T10:57:29.942Z,48.47
2019-04-06T10:58:29.920Z,49.19
2019-04-06T10:59:29.787Z,49.46
2019-04-06T11:00:29.900Z,49.85
2019-04-06T11:01:29.662Z,50.65
2019-04-06T11:02:29.574Z,49.41
2019-04-06T11:03:29.755Z,48.44
2019-04-06T11:04:29.425Z,48.30
2019-04-06T11:05:29.362Z,47.24
2019-04-06T11:06:29.538Z,46.87
2019-04-06T11:07:29.206Z,46.39
2019-04-06T11:08:29.137Z,46.84
2019-04-06T11:09:29.286Z,46.26
2019-04-06T11:10:28.992Z,47.65
2019-04-06T11:11:28.913Z,49.10
2019-04-06T11:12:28.839Z,48.90
2019-04-06T11:13:28.764Z,49.46
2019-04-06T11:14:28.949Z,50.40
2019-04-06T11:15:28.626Z,50.40
2019-04-06T11:16:28.563Z,50.18
2019-04-06T11:17:28.476Z,50.38
2019-04-06T11:18:28.402Z,50.21
2019-04-06T11:19:28.326Z,49.53
2019-04-06T11:20:28.447Z,47.80
2019-04-06T11:21:28.177Z,47.84
2019-04-06T11:22:28.115Z,46.32
2019-04-06T11:23:28.039Z,46.56
2019-04-06T11:24:27.973Z,46.51
2019-04-06T11:25:27.889Z,47.28
2019-04-06T11:26:27.826Z,45.93
2019-04-06T11:27:27.802Z,46.44
2019-04-06T11:28:27.689Z,45.40
2019-04-06T11:29:27.601Z,45.88
2019-04-06T11:30:27.527Z,45.71
2019-04-06T11:31:27.825Z,44.93
2019-04-06T11:32:27.461Z,45.13
2019-04-06T11:33:27.331Z,44.57
2019-04-06T11:34:27.250Z,44.10
2019-04-06T11:35:27.376Z,44.49
2019-04-06T11:36:27.446Z,44.81
2019-04-06T11:37:27.028Z,44.93
2019-04-06T11:38:26.956Z,45.78
2019-04-06T11:39:26.891Z,45.32
2019-04-06T11:40:26.818Z,45.71
2019-04-06T11:41:26.743Z,45.15
2019-04-06T11:42:26.678Z,45.07
2019-04-06T11:43:26.621Z,44.59
2019-04-06T11:44:26.649Z,43.82
2019-04-06T11:45:26.467Z,43.99
2019-04-06T11:46:26.392Z,44.23
2019-04-06T11:47:26.329Z,45.35
2019-04-06T11:48:26.257Z,46.22
2019-04-06T11:49:26.500Z,46.61
2019-04-06T11:50:26.121Z,46.42
2019-04-06T11:51:26.042Z,46.44
2019-04-06T11:52:25.979Z,46.63
2019-04-06T11:53:26.083Z,46.53
2019-04-06T11:54:25.830Z,46.02
2019-04-06T11:55:26.091Z,45.37
2019-04-06T11:56:25.694Z,44.01
2019-04-06T11:57:25.630Z,44.74
2019-04-06T11:58:25.616Z,45.47
2019-04-06T11:59:25.480Z,45.51
2019-04-06T12:00:27.453Z,45.34
2019-04-06T12:01:25.344Z,44.64
2019-04-06T12:02:25.281Z,44.93
2019-04-06T12:03:25.518Z,45.13
2019-04-06T12:04:25.147Z,45.03
2019-04-06T12:05:25.069Z,45.90
2019-04-06T12:06:24.993Z,45.01
2019-04-06T12:07:24.935Z,45.01
2019-04-06T12:08:24.857Z,45.35
2019-04-06T12:09:24.795Z,45.68
2019-04-06T12:10:24.719Z,45.71
2019-04-06T12:11:24.644Z,45.49
2019-04-06T12:12:24.583Z,45.86
2019-04-06T12:13:24.551Z,46.00
2019-04-06T12:14:24.444Z,45.30
2019-04-06T12:15:24.370Z,45.30
2019-04-06T12:16:24.295Z,45.61
2019-04-06T12:17:24.232Z,44.33
2019-04-06T12:18:24.157Z,44.54
2019-04-06T12:19:24.095Z,44.06
2019-04-06T12:20:24.020Z,43.68
2019-04-06T12:21:23.967Z,44.54
2019-04-06T12:22:23.883Z,44.04
2019-04-06T12:23:23.854Z,44.47
2019-04-06T12:24:23.745Z,44.45
2019-04-06T12:25:23.673Z,44.53
2019-04-06T12:26:23.861Z,43.99
2019-04-06T12:27:23.532Z,44.20
2019-04-06T12:28:23.462Z,43.13
2019-04-06T12:29:23.384Z,43.89
2019-04-06T12:30:24.548Z,44.37
2019-04-06T12:31:23.247Z,43.31
2019-04-06T12:32:23.405Z,43.58
2019-04-06T12:33:23.137Z,43.09
2019-04-06T12:34:23.034Z,43.85
2019-04-06T12:35:22.972Z,43.65
2019-04-06T12:36:22.897Z,44.54
2019-04-06T12:37:22.833Z,44.06
2019-04-06T12:38:24.767Z,44.57
2019-04-06T12:39:22.684Z,42.92
2019-04-06T12:40:22.622Z,42.85
2019-04-06T12:41:22.640Z,43.33
2019-04-06T12:42:22.802Z,43.29
2019-04-06T12:43:22.486Z,43.46
2019-04-06T12:44:22.396Z,44.04
2019-04-06T12:45:22.546Z,43.77
2019-04-06T12:46:22.524Z,42.55
2019-04-06T12:47:22.187Z,43.04
2019-04-06T12:48:22.075Z,42.55
2019-04-06T12:49:22.033Z,42.44
2019-04-06T12:50:21.924Z,41.97
2019-04-06T12:51:21.852Z,41.88